Time;durP1;ratioP1;P1;durP2;ratioP2;P2;SDS_P1;SDS_P2;PMS_P1;PMS_P2;Temp;Humidity;BMP_temperature;BMP_pressure;BME280_temperature;BME280_humidity;BME280_pressure;Samples;Min_cycle;Max_cycle;Signal;HPM_P1;HPM_P2
2024/03/29 00:01:09;;;;;;;58.50;11.52;;;;;;;5.52;100.00;96508.22;5017513;28;20040;-62
2024/03/29 00:03:34;;;;;;;86.65;13.18;;;;;;;5.50;100.00;96496.22;5012340;28;20029;-60
2024/03/29 00:06:00;;;;;;;83.32;17.80;;;;;;;5.36;100.00;96488.56;5011415;28;20110;-59
2024/03/29 00:08:26;;;;;;;53.70;10.95;;;;;;;5.56;100.00;96491.00;5014432;28;20140;-61
2024/03/29 00:10:51;;;;;;;55.47;10.68;;;;;;;5.65;100.00;96487.50;5010861;28;20041;-62
2024/03/29 00:13:17;;;;;;;71.03;11.98;;;;;;;5.76;100.00;96485.69;5012064;28;20101;-61
2024/03/29 00:15:45;;;;;;;85.10;13.38;;;;;;;5.66;100.00;96490.06;5014057;28;20038;-61
2024/03/29 00:18:10;;;;;;;74.78;12.73;;;;;;;5.78;100.00;96476.22;5014013;28;20116;-63
2024/03/29 00:20:36;;;;;;;123.53;16.33;;;;;;;5.78;100.00;96476.22;5009396;28;20167;-60
2024/03/29 00:23:01;;;;;;;53.80;11.98;;;;;;;5.74;100.00;96482.25;5012511;28;20033;-59
2024/03/29 00:25:27;;;;;;;63.90;11.20;;;;;;;5.78;100.00;96476.22;5013793;28;20037;-61
2024/03/29 00:27:52;;;;;;;75.93;11.73;;;;;;;5.77;100.00;96469.34;5011461;28;20053;-62
2024/03/29 00:30:17;;;;;;;59.92;11.63;;;;;;;5.63;100.00;96472.03;5008130;28;20045;-59
2024/03/29 00:32:43;;;;;;;82.93;12.00;;;;;;;5.78;100.00;96465.88;5012654;28;20414;-59
2024/03/29 00:35:08;;;;;;;73.38;12.05;;;;;;;5.81;100.00;96460.72;5011872;28;20056;-61
2024/03/29 00:37:34;;;;;;;56.17;10.45;;;;;;;5.88;100.00;96463.22;5011967;28;20133;-60
2024/03/29 00:39:59;;;;;;;49.65;11.63;;;;;;;5.82;100.00;96466.72;5011140;28;20280;-60
2024/03/29 00:42:25;;;;;;;69.32;11.60;;;;;;;5.89;100.00;96470.09;5010924;28;20064;-60
2024/03/29 00:44:50;;;;;;;82.50;12.35;;;;;;;5.95;100.00;96472.63;5010886;28;20033;-60
2024/03/29 00:47:15;;;;;;;54.38;10.18;;;;;;;5.99;100.00;96464.00;5011579;28;20037;-61
2024/03/29 00:49:41;;;;;;;98.10;13.75;;;;;;;6.08;100.00;96471.66;5012103;28;20029;-60
2024/03/29 00:52:07;;;;;;;64.07;11.30;;;;;;;6.14;100.00;96456.97;5010503;28;20356;-59
2024/03/29 00:54:32;;;;;;;66.45;10.88;;;;;;;6.09;100.00;96447.56;5013458;28;20033;-61
2024/03/29 00:56:57;;;;;;;53.97;10.25;;;;;;;5.98;100.00;96449.38;5009994;28;20030;-59
2024/03/29 00:59:23;;;;;;;65.07;12.15;;;;;;;6.03;100.00;96447.63;5010409;28;20773;-60
2024/03/29 01:01:49;;;;;;;86.40;11.82;;;;;;;6.01;100.00;96436.44;5008520;28;20059;-60
2024/03/29 01:04:14;;;;;;;59.50;12.40;;;;;;;5.99;100.00;96431.28;5009018;28;20578;-61
2024/03/29 01:06:40;;;;;;;110.70;14.75;;;;;;;5.93;100.00;96409.84;5006305;28;20085;-61
2024/03/29 01:09:06;;;;;;;59.28;10.65;;;;;;;5.89;100.00;96411.59;5010172;28;20555;-61
2024/03/29 01:11:32;;;;;;;50.85;9.98;;;;;;;5.96;100.00;96404.66;5010045;28;20033;-60
2024/03/29 01:13:57;;;;;;;65.25;10.80;;;;;;;6.12;100.00;96389.88;5013587;28;20074;-60
2024/03/29 01:16:23;;;;;;;46.72;9.57;;;;;;;6.08;100.00;96401.13;5011203;28;20048;-60
2024/03/29 01:18:49;;;;;;;84.93;13.30;;;;;;;6.23;100.00;96394.91;5006855;28;20036;-61
2024/03/29 01:21:15;;;;;;;62.72;8.88;;;;;;;6.43;100.00;96393.84;5008940;28;20405;-60
2024/03/29 01:23:41;;;;;;;108.95;34.40;;;;;;;6.58;100.00;96377.28;5011826;28;20021;-59
2024/03/29 01:26:07;;;;;;;44.15;9.15;;;;;;;6.69;100.00;96390.06;5008960;28;20044;-60
2024/03/29 01:28:33;;;;;;;46.78;10.60;;;;;;;6.67;100.00;96386.63;5012563;28;20150;-61
2024/03/29 01:30:58;;;;;;;61.25;10.27;;;;;;;6.70;100.00;96407.25;5009761;28;20502;-60
2024/03/29 01:33:24;;;;;;;56.15;8.98;;;;;;;6.64;100.00;96406.47;5010373;28;20017;-60
2024/03/29 01:35:49;;;;;;;84.63;12.00;;;;;;;6.68;100.00;96396.94;5008745;28;20048;-58
2024/03/29 01:38:15;;;;;;;79.72;10.57;;;;;;;6.66;100.00;96395.25;5008187;28;20029;-60
2024/03/29 01:40:40;;;;;;;91.85;11.48;;;;;;;6.59;100.00;96377.28;5009333;28;20056;-61
2024/03/29 01:43:06;;;;;;;47.72;8.45;;;;;;;6.69;100.00;96359.06;5010771;28;20025;-62
2024/03/29 01:45:32;;;;;;;70.50;11.50;;;;;;;6.66;100.00;96361.69;5006863;28;20059;-60
2024/03/29 01:47:58;;;;;;;64.05;8.98;;;;;;;6.78;100.00;96371.84;5009252;28;20054;-60
2024/03/29 01:50:23;;;;;;;64.57;8.82;;;;;;;6.90;100.00;96366.50;5008339;28;20041;-63
2024/03/29 01:52:50;;;;;;;103.18;11.70;;;;;;;6.86;100.00;96370.00;5008844;28;20018;-60
2024/03/29 01:55:15;;;;;;;56.20;9.27;;;;;;;6.92;100.00;96370.78;5007769;28;20021;-58
2024/03/29 01:57:41;;;;;;;71.18;10.80;;;;;;;6.94;100.00;96367.28;5008929;28;20024;-61
2024/03/29 02:00:07;;;;;;;56.67;8.98;;;;;;;7.05;100.00;96374.06;5009853;28;20025;-58
2024/03/29 02:02:33;;;;;;;49.80;8.40;;;;;;;6.96;100.00;96382.78;5012571;28;20330;-59
2024/03/29 02:04:58;;;;;;;53.05;7.93;;;;;;;6.91;100.00;96372.53;5009940;28;20387;-59
2024/03/29 02:07:25;;;;;;;54.67;8.18;;;;;;;7.01;100.00;96361.16;5009641;28;20045;-61
2024/03/29 02:09:50;;;;;;;101.53;11.82;;;;;;;7.01;100.00;96355.13;5007457;28;20018;-60
2024/03/29 02:12:15;;;;;;;75.15;22.50;;;;;;;7.15;100.00;96363.53;5009396;28;20078;-59
2024/03/29 02:14:42;;;;;;;75.47;10.02;;;;;;;7.21;100.00;96357.41;5007889;28;20034;-60
2024/03/29 02:17:08;;;;;;;57.40;7.82;;;;;;;7.04;100.00;96355.09;5011393;28;20350;-60
2024/03/29 02:19:33;;;;;;;51.78;8.10;;;;;;;7.16;100.00;96361.78;5011085;28;20330;-60
2024/03/29 02:22:00;;;;;;;49.42;7.55;;;;;;;7.14;100.00;96354.09;5009081;28;20599;-60
2024/03/29 02:24:26;;;;;;;64.53;10.35;;;;;;;7.18;100.00;96354.88;5011708;28;20415;-61
2024/03/29 02:26:54;;;;;;;73.25;9.35;;;;;;;7.23;100.00;96360.81;5011486;28;20174;-61
2024/03/29 02:29:20;;;;;;;52.70;7.65;;;;;;;7.42;100.00;96357.91;5010114;28;20033;-62
2024/03/29 02:31:45;;;;;;;98.30;10.85;;;;;;;7.31;100.00;96354.69;5011705;28;20029;-62
2024/03/29 02:34:10;;;;;;;54.63;8.57;;;;;;;7.29;100.00;96365.03;5016201;28;20036;-60
2024/03/29 02:36:36;;;;;;;65.50;13.25;;;;;;;7.41;100.00;96366.56;5013038;28;20042;-59
2024/03/29 02:39:01;;;;;;;74.32;8.07;;;;;;;7.36;100.00;96366.66;5012258;28;20033;-60
2024/03/29 02:41:29;;;;;;;53.60;7.25;;;;;;;7.33;100.00;96365.84;5012598;28;20030;-61
2024/03/29 02:43:55;;;;;;;92.93;10.43;;;;;;;7.35;100.00;96348.59;5011178;28;20746;-60
2024/03/29 02:46:20;;;;;;;64.30;12.05;;;;;;;7.40;100.00;96337.28;5013626;28;20140;-61
2024/03/29 02:48:45;;;;;;;85.18;9.55;;;;;;;7.42;100.00;96342.41;5013416;28;20088;-59
2024/03/29 02:51:11;;;;;;;50.58;7.97;;;;;;;7.61;100.00;96336.91;5014023;28;20041;-58
2024/03/29 02:53:36;;;;;;;55.03;7.78;;;;;;;7.42;100.00;96335.50;5013387;28;20045;-59
2024/03/29 02:56:02;;;;;;;44.88;6.72;;;;;;;7.37;100.00;96332.16;5012571;28;20037;-60
2024/03/29 02:58:27;;;;;;;56.53;7.82;;;;;;;7.54;100.00;96328.41;5014773;28;20378;-61
2024/03/29 03:00:52;;;;;;;91.85;10.23;;;;;;;7.37;100.00;96326.97;5010201;28;20033;-59
2024/03/29 03:03:18;;;;;;;50.38;6.60;;;;;;;7.43;100.00;96328.63;5013988;28;20353;-60
2024/03/29 03:05:43;;;;;;;54.00;7.38;;;;;;;7.50;100.00;96324.19;5012511;28;20034;-60
2024/03/29 03:11:00;;;;;;;94.80;9.70;;;;;;;7.50;100.00;96322.44;5002786;28;20064;-59
2024/03/29 03:13:29;;;;;;;74.80;14.38;;;;;;;7.58;100.00;96319.72;5012286;28;20025;-60
2024/03/29 03:15:55;;;;;;;88.32;11.40;;;;;;;7.50;100.00;96316.41;5011420;28;20052;-60
2024/03/29 03:18:21;;;;;;;80.95;9.13;;;;;;;7.34;100.00;96316.69;5011645;28;20318;-59
2024/03/29 03:20:57;;;;;;;93.18;15.35;;;;;;;7.49;100.00;96320.72;5009967;28;20048;-59
2024/03/29 03:23:23;;;;;;;51.13;7.25;;;;;;;7.65;100.00;96312.69;5015817;28;20029;-60
2024/03/29 03:25:55;;;;;;;85.15;10.10;;;;;;;7.52;100.00;96305.16;5011203;28;20480;-60
2024/03/29 03:28:21;;;;;;;83.65;12.80;;;;;;;7.63;100.00;96304.09;5014940;28;20013;-59
2024/03/29 03:30:47;;;;;;;69.53;8.02;;;;;;;7.61;100.00;96311.88;5011076;28;20087;-60
2024/03/29 03:33:12;;;;;;;93.18;39.30;;;;;;;7.69;100.00;96307.41;5011943;28;20056;-59
2024/03/29 03:35:38;;;;;;;63.30;7.85;;;;;;;7.58;100.00;96311.97;5011334;28;20060;-62
2024/03/29 03:38:03;;;;;;;49.10;6.90;;;;;;;7.59;100.00;96311.06;5014279;28;20027;-61
2024/03/29 03:40:28;;;;;;;66.35;7.97;;;;;;;7.72;100.00;96328.97;5014054;28;20044;-59
2024/03/29 03:42:54;;;;;;;109.20;10.85;;;;;;;7.74;100.00;96335.81;5011716;28;20079;-61
2024/03/29 03:45:19;;;;;;;43.92;6.75;;;;;;;7.79;100.00;96331.41;5014628;28;20235;-60
2024/03/29 03:47:45;;;;;;;64.70;7.90;;;;;;;7.63;100.00;96332.56;5010489;28;20520;-59
2024/03/29 03:50:10;;;;;;;59.03;8.40;;;;;;;7.71;100.00;96335.03;5012443;28;20036;-60
2024/03/29 03:52:36;;;;;;;64.55;7.57;;;;;;;7.79;100.00;96338.28;5016195;28;20120;-60
2024/03/29 03:55:01;;;;;;;92.25;9.02;;;;;;;7.86;100.00;96334.72;5012690;28;20573;-58
2024/03/29 03:57:26;;;;;;;58.70;7.10;;;;;;;7.83;100.00;96339.94;5012016;28;20470;-61
2024/03/29 03:59:52;;;;;;;72.38;8.52;;;;;;;7.73;100.00;96320.31;5009754;28;20132;-61
2024/03/29 04:02:17;;;;;;;49.03;13.45;;;;;;;7.68;100.00;96322.97;5011106;28;20033;-60
2024/03/29 04:04:42;;;;;;;68.65;7.68;;;;;;;7.59;100.00;96326.59;5011256;28;20148;-60
2024/03/29 04:07:08;;;;;;;52.33;6.20;;;;;;;7.80;100.00;96327.91;5012146;28;20044;-59
2024/03/29 04:09:33;;;;;;;48.30;6.53;;;;;;;7.68;100.00;96328.16;5012326;28;20022;-61
2024/03/29 04:11:58;;;;;;;110.32;16.40;;;;;;;7.77;100.00;96321.97;5010410;28;20266;-60
2024/03/29 04:14:23;;;;;;;58.58;17.40;;;;;;;7.78;100.00;96337.47;5010708;28;20149;-60
2024/03/29 04:16:49;;;;;;;75.00;8.23;;;;;;;7.77;100.00;96316.78;5011903;28;20087;-61
2024/03/29 04:19:14;;;;;;;59.25;7.47;;;;;;;7.69;100.00;96320.34;5009836;28;20030;-59
2024/03/29 04:21:39;;;;;;;59.90;8.38;;;;;;;7.52;100.00;96312.06;5012766;28;20061;-60
2024/03/29 04:24:07;;;;;;;48.88;6.97;;;;;;;7.57;100.00;96318.00;5010061;28;20444;-61
2024/03/29 04:26:33;;;;;;;51.45;7.75;;;;;;;7.76;100.00;96312.50;5011294;28;20045;-60
2024/03/29 04:28:58;;;;;;;115.13;37.63;;;;;;;7.76;100.00;96326.25;5010181;28;20056;-61
2024/03/29 04:31:23;;;;;;;55.85;10.27;;;;;;;7.71;100.00;96322.09;5012406;28;20049;-61
2024/03/29 04:33:49;;;;;;;76.60;7.88;;;;;;;7.95;100.00;96336.28;5009018;28;20034;-60
2024/03/29 04:36:14;;;;;;;65.13;7.13;;;;;;;8.02;100.00;96334.44;5014422;28;20041;-60
2024/03/29 04:38:39;;;;;;;57.22;6.65;;;;;;;8.06;100.00;96341.25;5011702;28;20033;-59
2024/03/29 04:41:05;;;;;;;66.20;7.40;;;;;;;8.07;100.00;96337.78;5009034;28;20191;-60
2024/03/29 04:43:30;;;;;;;56.08;6.60;;;;;;;8.17;100.00;96341.03;5013416;28;20057;-61
2024/03/29 04:46:10;;;;;;;74.97;8.23;;;;;;;8.19;100.00;96355.66;5011268;28;20049;-59
2024/03/29 04:48:36;;;;;;;41.78;5.93;;;;;;;8.12;100.00;96356.66;5011253;28;20091;-61
2024/03/29 04:51:01;;;;;;;92.38;10.40;;;;;;;8.08;100.00;96349.84;5009728;28;20839;-58
2024/03/29 04:53:27;;;;;;;59.53;6.97;;;;;;;8.16;100.00;96366.06;5012110;28;20528;-60
2024/03/29 04:55:56;;;;;;;79.82;8.68;;;;;;;8.08;100.00;96352.41;5009045;28;20087;-59
2024/03/29 04:58:22;;;;;;;72.68;8.15;;;;;;;8.03;100.00;96347.34;5010864;28;20056;-61
2024/03/29 05:00:49;;;;;;;56.53;6.35;;;;;;;8.13;100.00;96365.28;5008197;28;20034;-61
2024/03/29 05:03:14;;;;;;;68.00;6.82;;;;;;;8.08;100.00;96355.88;5010077;28;20523;-60
2024/03/29 05:05:39;;;;;;;67.43;7.38;;;;;;;8.15;100.00;96372.13;5009775;28;20128;-61
2024/03/29 05:08:05;;;;;;;84.20;9.02;;;;;;;8.26;100.00;96358.97;5010979;28;20029;-60
2024/03/29 05:10:30;;;;;;;69.65;7.20;;;;;;;8.40;100.00;96357.84;5010544;28;20578;-60
2024/03/29 05:12:55;;;;;;;119.75;10.63;;;;;;;8.49;100.00;96367.16;5010599;28;20018;-61
2024/03/29 05:15:21;;;;;;;57.08;8.38;;;;;;;8.29;100.00;96360.66;5010670;28;20076;-58
2024/03/29 05:17:46;;;;;;;57.00;7.15;;;;;;;8.36;100.00;96384.69;5015189;28;20111;-59
2024/03/29 05:20:11;;;;;;;55.67;6.68;;;;;;;8.40;100.00;96399.28;5008062;28;20597;-58
2024/03/29 05:22:37;;;;;;;56.50;7.07;;;;;;;8.40;100.00;96407.06;5012399;28;20017;-60
2024/03/29 05:25:03;;;;;;;77.10;8.48;;;;;;;8.65;100.00;96411.78;5010539;28;20044;-61
2024/03/29 05:27:29;;;;;;;64.72;6.65;;;;;;;8.49;100.00;96411.22;5011046;28;20048;-59
2024/03/29 05:29:54;;;;;;;71.45;7.55;;;;;;;8.51;100.00;96424.97;5009941;28;20053;-59
2024/03/29 05:32:20;;;;;;;50.72;6.43;;;;;;;8.66;100.00;96436.78;5009334;28;20041;-61
2024/03/29 05:34:46;;;;;;;43.33;5.78;;;;;;;8.57;100.00;96437.81;5012283;28;20017;-60
2024/03/29 05:37:12;;;;;;;42.28;6.38;;;;;;;8.54;100.00;96414.59;5008823;28;20033;-59
2024/03/29 05:39:37;;;;;;;50.67;6.63;;;;;;;8.59;100.00;96417.94;5012107;28;20037;-63
2024/03/29 05:42:03;;;;;;;85.03;8.95;;;;;;;8.59;100.00;96428.28;5008416;28;20348;-62
2024/03/29 05:44:28;;;;;;;54.10;7.07;;;;;;;8.76;100.00;96450.41;5010972;28;20481;-58
2024/03/29 05:46:53;;;;;;;117.30;42.42;;;;;;;8.37;100.00;96407.97;5011160;28;20041;-57
2024/03/29 05:49:18;;;;;;;52.50;6.88;;;;;;;8.14;100.00;96385.97;5013023;28;20053;-62
2024/03/29 05:51:44;;;;;;;70.22;8.75;;;;;;;8.41;100.00;96403.56;5012673;28;20117;-60
2024/03/29 05:54:09;;;;;;;41.30;5.90;;;;;;;8.60;100.00;96388.53;5007580;28;20033;-62
2024/03/29 05:56:34;;;;;;;47.70;6.45;;;;;;;8.78;100.00;96376.06;5012936;28;20064;-58
2024/03/29 05:59:00;;;;;;;71.60;8.10;;;;;;;8.86;100.00;96389.69;5010576;28;20041;-60
2024/03/29 06:01:26;;;;;;;61.10;6.43;;;;;;;8.88;100.00;96380.16;5011188;28;20117;-63
2024/03/29 06:03:52;;;;;;;54.17;6.10;;;;;;;8.73;100.00;96394.31;5008922;28;20021;-60
2024/03/29 06:06:22;;;;;;;63.30;7.03;;;;;;;8.97;100.00;96384.28;5009785;28;20495;-59
2024/03/29 06:08:47;;;;;;;58.45;6.80;;;;;;;8.83;100.00;96389.75;5010826;28;20060;-62
2024/03/29 06:11:13;;;;;;;55.42;6.93;;;;;;;9.08;100.00;96400.44;5009720;28;20144;-60
2024/03/29 06:19:08;;;;;;;96.07;9.70;;;;;;;9.24;100.00;96426.88;5010101;28;20065;-61
2024/03/29 06:21:38;;;;;;;43.20;5.35;;;;;;;9.01;100.00;96421.38;5008095;28;20029;-58
2024/03/29 06:24:12;;;;;;;84.78;9.15;;;;;;;9.07;100.00;96422.09;5008786;28;20242;-62
2024/03/29 06:26:38;;;;;;;53.17;6.93;;;;;;;9.50;100.00;96411.56;5011407;28;20045;-60
2024/03/29 06:29:03;;;;;;;75.80;8.63;;;;;;;9.60;100.00;96412.19;5009233;28;20451;-60
2024/03/29 06:31:29;;;;;;;63.70;7.53;;;;;;;9.77;100.00;96436.00;5010593;28;20030;-60
2024/03/29 06:33:54;;;;;;;48.55;6.50;;;;;;;9.50;100.00;96428.00;5005105;28;20016;-59
2024/03/29 06:36:20;;;;;;;49.38;7.65;;;;;;;9.96;100.00;96412.16;5010276;28;20444;-61
2024/03/29 06:38:45;;;;;;;46.30;6.28;;;;;;;9.76;100.00;96428.25;5010096;28;20596;-62
2024/03/29 06:41:10;;;;;;;79.80;8.15;;;;;;;9.82;100.00;96453.19;5008010;28;20061;-61
2024/03/29 06:43:36;;;;;;;42.17;5.97;;;;;;;10.20;100.00;96430.56;5010268;28;20017;-62
2024/03/29 06:46:03;;;;;;;82.15;8.55;;;;;;;10.52;100.00;96413.28;5008263;28;20041;-63
2024/03/29 06:48:30;;;;;;;58.55;6.82;;;;;;;10.66;100.00;96393.84;5008562;28;20079;-59
2024/03/29 06:50:56;;;;;;;43.85;6.32;;;;;;;10.25;100.00;96397.50;5005392;28;20064;-58
2024/03/29 06:53:21;;;;;;;48.50;6.22;;;;;;;10.14;100.00;96391.78;5010575;28;20236;-60
2024/03/29 06:55:49;;;;;;;64.72;6.97;;;;;;;10.05;100.00;96392.03;5009356;28;20029;-60
2024/03/29 06:58:15;;;;;;;59.42;7.60;;;;;;;9.79;100.00;96385.78;5007727;28;20406;-60
2024/03/29 07:00:40;;;;;;;73.47;7.55;;;;;;;9.55;100.00;96380.31;5007792;28;20041;-58
2024/03/29 07:03:05;;;;;;;95.15;10.02;;;;;;;9.64;100.00;96388.72;5007495;28;20131;-59
2024/03/29 07:05:31;;;;;;;53.72;6.43;;;;;;;9.66;100.00;96396.50;5007008;28;20065;-60
2024/03/29 07:07:59;;;;;;;57.15;6.68;;;;;;;9.84;100.00;96394.31;5011036;28;20041;-59
2024/03/29 07:10:24;;;;;;;59.60;7.15;;;;;;;10.07;100.00;96385.91;5011218;28;20029;-59
2024/03/29 07:12:49;;;;;;;42.55;6.07;;;;;;;10.10;100.00;96361.59;5010115;28;20029;-62
2024/03/29 07:15:15;;;;;;;48.67;6.47;;;;;;;10.83;100.00;96354.31;5013010;28;20025;-61
2024/03/29 07:17:40;;;;;;;61.00;6.93;;;;;;;12.69;82.97;96359.31;5012969;28;20029;-62
2024/03/29 07:20:08;;;;;;;83.13;8.80;;;;;;;13.88;73.49;96347.63;5013060;28;20013;-62
2024/03/29 07:22:33;;;;;;;47.97;7.13;;;;;;;15.55;59.43;96349.69;5014762;28;20081;-61
2024/03/29 07:24:58;;;;;;;60.90;8.13;;;;;;;19.28;45.93;96334.78;5013048;28;20045;-61
2024/03/29 07:27:24;;;;;;;45.13;6.55;;;;;;;21.66;39.71;96324.56;5014972;28;20098;-59
2024/03/29 07:29:49;;;;;;;38.08;6.20;;;;;;;19.64;39.43;96329.84;5012682;28;20022;-60
2024/03/29 07:32:15;;;;;;;71.13;8.05;;;;;;;19.42;40.21;96330.41;5011950;28;20497;-62
2024/03/29 07:34:41;;;;;;;41.53;6.22;;;;;;;23.10;35.94;96320.59;5012540;28;20014;-59
2024/03/29 07:37:06;;;;;;;68.35;8.68;;;;;;;23.07;33.45;96341.19;5010270;28;20034;-61
2024/03/29 07:39:31;;;;;;;31.55;5.53;;;;;;;23.96;32.46;96326.00;5013174;28;21502;-62
2024/03/29 07:41:57;;;;;;;34.45;5.78;;;;;;;24.27;30.66;96334.88;5013053;28;20030;-59
2024/03/29 07:44:23;;;;;;;32.38;5.40;;;;;;;24.07;31.09;96320.63;5013414;28;20092;-60
2024/03/29 07:46:48;;;;;;;35.92;5.63;;;;;;;-148.24;100.00;61531.34;5013020;28;20580;-61
2024/03/29 07:49:14;;;;;;;63.45;7.60;;;;;;;-34.06;100.00;95446.50;5009060;28;20450;-61
2024/03/29 07:51:41;;;;;;;29.85;5.00;;;;;;;-148.24;100.00;61531.34;5010134;28;20262;-61
2024/03/29 07:54:06;;;;;;;58.72;7.32;;;;;;;107.25;100.00;-18582.41;5010397;28;20386;-60
2024/03/29 07:56:31;;;;;;;49.50;6.43;;;;;;;-148.24;100.00;61531.34;5010480;28;21824;-60
2024/03/29 07:58:57;;;;;;;36.28;5.68;;;;;;;-148.24;100.00;61531.34;5013588;28;20105;-60
2024/03/29 08:01:23;;;;;;;37.17;5.70;;;;;;;-148.24;100.00;61531.34;5012431;28;20033;-61
2024/03/29 08:03:55;;;;;;;37.95;5.95;;;;;;;192.57;100.00;107310.84;5009835;28;20037;-62
2024/03/29 08:06:23;;;;;;;;;;;;;;;-148.24;100.00;-5964.22;5011069;28;20060;-62
2024/03/29 08:08:48;;;;;;;31.63;5.43;;;;;;;23.18;28.66;61531.34;5010966;28;20341;-60
2024/03/29 08:11:14;;;;;;;73.47;9.75;;;;;;;-148.24;30.88;103077.16;5008368;28;20045;-62
2024/03/29 08:13:40;;;;;;;42.75;6.13;;;;;;;23.18;100.00;83368.72;5011217;28;20025;-62
2024/03/29 08:16:06;;;;;;;58.15;8.02;;;;;;;-148.24;31.45;72546.06;5009783;28;20052;-61
2024/03/29 08:18:33;;;;;;;48.60;6.57;;;;;;;23.18;31.92;96297.88;5012670;28;20483;-63
2024/03/29 08:20:59;;;;;;;32.45;5.65;;;;;;;23.18;100.00;96231.59;5014106;28;20061;-61
2024/03/29 08:23:25;;;;;;;39.30;6.18;;;;;;;-148.24;100.00;71074.03;5011850;28;20032;-59
2024/03/29 08:25:51;;;;;;;32.40;5.95;;;;;;;24.19;44.75;96338.78;5010631;28;20048;-60
2024/03/29 08:28:19;;;;;;;67.43;8.27;;;;;;;-148.24;43.41;71075.88;5007665;28;20044;-61
2024/03/29 08:30:45;;;;;;;34.67;5.38;;;;;;;21.18;43.20;96360.66;5012677;28;20330;-59
2024/03/29 08:33:10;;;;;;;63.60;10.98;;;;;;;19.42;53.95;96351.50;5010752;28;20041;-61
2024/03/29 08:35:35;;;;;;;38.88;8.80;;;;;;;19.62;71.40;96348.38;5010427;28;20050;-62
2024/03/29 08:38:01;;;;;;;66.95;33.97;;;;;;;18.70;74.17;96351.56;5011667;28;20111;-59
2024/03/29 08:40:31;;;;;;;47.13;19.25;;;;;;;18.43;74.33;96343.59;5014632;28;20022;-62
2024/03/29 08:42:57;;;;;;;37.25;5.90;;;;;;;18.27;62.66;96339.28;5010832;28;20087;-61
2024/03/29 08:45:22;;;;;;;35.95;6.07;;;;;;;17.79;89.43;96334.22;5009573;28;20364;-60
2024/03/29 08:47:48;;;;;;;40.10;6.35;;;;;;;17.35;100.00;96333.25;5012781;28;20036;-60
2024/03/29 08:50:14;;;;;;;66.45;8.55;;;;;;;17.03;97.23;96313.09;5010814;28;20221;-60
2024/03/29 08:52:39;;;;;;;44.42;9.02;;;;;;;16.64;100.00;96354.59;5010156;28;20026;-61
2024/03/29 08:55:08;;;;;;;43.03;5.70;;;;;;;16.32;100.00;96329.16;5012270;28;20117;-60
2024/03/29 08:57:33;;;;;;;44.55;7.57;;;;;;;16.31;100.00;96339.75;5012293;28;20042;-62
2024/03/29 09:00:00;;;;;;;39.05;6.18;;;;;;;16.25;100.00;96339.13;5010346;28;20028;-60
2024/03/29 09:02:25;;;;;;;56.47;33.58;;;;;;;16.21;100.00;96348.09;5008632;28;20574;-60
2024/03/29 09:04:51;;;;;;;56.60;7.60;;;;;;;15.71;100.00;96352.38;5012907;28;20021;-61
2024/03/29 09:07:16;;;;;;;43.17;6.63;;;;;;;16.06;100.00;96359.38;5007776;28;20212;-59
2024/03/29 09:09:41;;;;;;;39.53;6.28;;;;;;;15.49;100.00;96375.22;5010768;28;20025;-59
2024/03/29 09:12:08;;;;;;;81.82;13.07;;;;;;;14.99;100.00;96400.31;5009659;28;20042;-61
2024/03/29 09:14:34;;;;;;;33.60;5.88;;;;;;;14.27;100.00;96392.19;5012216;28;20040;-62
2024/03/29 09:16:59;;;;;;;54.15;24.02;;;;;;;14.21;100.00;96397.69;5011877;28;20410;-59
2024/03/29 09:19:25;;;;;;;45.83;7.97;;;;;;;13.58;100.00;96395.03;5010172;28;20108;-60
2024/03/29 09:21:50;;;;;;;43.08;6.40;;;;;;;12.89;100.00;96404.69;5009946;28;20144;-61
2024/03/29 09:24:17;;;;;;;74.72;15.45;;;;;;;12.43;100.00;96400.25;5011686;28;20040;-60
2024/03/29 09:26:43;;;;;;;60.50;7.28;;;;;;;11.46;100.00;96426.94;5010391;28;20099;-61
2024/03/29 09:29:09;;;;;;;61.13;6.78;;;;;;;11.09;100.00;96427.25;5011550;28;20044;-60
2024/03/29 09:31:35;;;;;;;46.55;5.75;;;;;;;10.83;100.00;96447.94;5011168;28;20029;-62
2024/03/29 09:34:00;;;;;;;50.70;5.70;;;;;;;10.74;100.00;96440.41;5008540;28;20035;-59
2024/03/29 09:36:26;;;;;;;45.53;5.68;;;;;;;10.48;100.00;96449.78;5010339;28;20029;-60
2024/03/29 09:38:52;;;;;;;40.90;5.32;;;;;;;10.25;100.00;96470.28;5009055;28;20026;-59
2024/03/29 09:41:19;;;;;;;80.07;8.32;;;;;;;10.61;100.00;96469.34;5007608;28;20097;-60
2024/03/29 09:43:46;;;;;;;42.38;5.85;;;;;;;10.84;100.00;96490.41;5009959;28;20086;-58
2024/03/29 09:46:12;;;;;;;69.13;7.50;;;;;;;11.01;100.00;96493.38;5010238;28;20046;-62
2024/03/29 09:48:40;;;;;;;56.63;7.00;;;;;;;11.03;100.00;96490.72;5010870;28;20123;-58
2024/03/29 09:51:07;;;;;;;49.75;6.63;;;;;;;11.23;100.00;96500.53;5008545;28;20140;-60
2024/03/29 09:53:35;;;;;;;44.45;6.18;;;;;;;11.07;100.00;96498.38;5025297;28;20043;-59
2024/03/29 09:56:04;;;;;;;45.58;6.05;;;;;;;11.46;100.00;96499.84;5007832;28;20369;-60
2024/03/29 09:58:29;;;;;;;50.13;6.38;;;;;;;11.14;100.00;96512.06;5011664;28;20107;-59
2024/03/29 10:00:55;;;;;;;41.13;6.28;;;;;;;11.38;100.00;96500.97;5009998;28;20041;-60
2024/03/29 10:03:28;;;;;;;84.97;8.98;;;;;;;11.70;100.00;96501.72;5008845;28;20064;-60
2024/03/29 10:05:55;;;;;;;47.72;6.53;;;;;;;11.52;100.00;96498.81;5010326;28;20049;-60
2024/03/29 10:08:21;;;;;;;89.57;9.52;;;;;;;11.42;100.00;96498.22;5010395;28;20026;-61
2024/03/29 10:10:49;;;;;;;54.47;6.68;;;;;;;11.65;100.00;96481.03;5009615;28;20041;-58
2024/03/29 10:13:14;;;;;;;77.75;8.77;;;;;;;11.57;100.00;96476.06;5010313;28;20037;-59
2024/03/29 10:15:43;;;;;;;47.85;7.15;;;;;;;11.71;100.00;96483.44;5008110;28;20034;-61
2024/03/29 10:18:09;;;;;;;61.40;7.97;;;;;;;12.30;100.00;96475.47;5008482;28;20029;-58
2024/03/29 10:20:35;;;;;;;54.35;7.30;;;;;;;12.19;100.00;96485.41;5007682;28;20505;-60
2024/03/29 10:23:03;;;;;;;41.58;5.80;;;;;;;12.17;100.00;96475.03;5011993;28;20029;-60
2024/03/29 10:25:33;;;;;;;56.38;7.28;;;;;;;12.78;100.00;96459.00;5010871;28;20103;-59
2024/03/29 10:27:58;;;;;;;44.00;5.82;;;;;;;12.38;100.00;96446.50;5012126;28;20022;-60
2024/03/29 10:30:25;;;;;;;73.53;7.78;;;;;;;12.47;100.00;96424.50;5010454;28;20150;-60
2024/03/29 10:32:51;;;;;;;54.60;6.95;;;;;;;12.30;100.00;96402.47;5010512;28;20014;-59
2024/03/29 10:35:16;;;;;;;75.75;8.20;;;;;;;12.35;100.00;96405.75;5009733;28;20428;-59
2024/03/29 10:37:43;;;;;;;42.92;6.90;;;;;;;12.16;100.00;96410.78;5008492;28;20029;-60
2024/03/29 10:40:09;;;;;;;51.13;8.70;;;;;;;12.74;100.00;96408.72;5007955;28;20037;-60
2024/03/29 10:42:37;;;;;;;46.78;8.75;;;;;;;13.50;100.00;96446.75;5011173;28;20042;-60
2024/03/29 10:45:05;;;;;;;50.42;8.32;;;;;;;13.74;100.00;96455.34;5012981;28;20502;-60
2024/03/29 10:47:32;;;;;;;48.95;8.18;;;;;;;13.74;100.00;96454.50;5010364;28;20397;-61
2024/03/29 10:49:58;;;;;;;45.00;8.20;;;;;;;13.04;100.00;96454.56;5013645;28;20026;-61
2024/03/29 10:52:25;;;;;;;63.63;7.85;;;;;;;13.26;100.00;96459.84;5011451;28;20049;-59
2024/03/29 10:54:51;;;;;;;58.78;8.30;;;;;;;13.48;100.00;96465.06;5009236;28;20316;-58
2024/03/29 10:57:23;;;;;;;76.68;9.40;;;;;;;13.23;100.00;96455.59;5009389;28;20463;-60
2024/03/29 11:00:20;;;;;;;43.95;7.68;;;;;;;13.52;100.00;96445.75;5011937;28;20886;-58
2024/03/29 11:03:03;;;;;;;47.45;10.80;;;;;;;13.96;100.00;96451.88;5015209;28;20120;-58
2024/03/29 11:05:30;;;;;;;90.57;27.58;;;;;;;13.98;100.00;96451.78;5011960;28;20444;-62
2024/03/29 11:07:56;;;;;;;67.10;39.47;;;;;;;13.09;100.00;96461.31;5013536;28;20025;-60
2024/03/29 11:10:35;;;;;;;83.45;22.08;;;;;;;12.82;100.00;96452.78;5010750;28;20040;-60
2024/03/29 11:13:04;;;;;;;46.75;19.52;;;;;;;12.59;100.00;96437.06;5013604;28;20025;-59
2024/03/29 11:15:31;;;;;;;64.28;31.83;;;;;;;12.24;100.00;96421.78;5011438;28;20037;-58
2024/03/29 11:17:57;;;;;;;99.97;47.72;;;;;;;12.46;100.00;96422.75;5012015;28;20021;-61
2024/03/29 11:20:33;;;;;;;84.55;13.48;;;;;;;12.75;100.00;96429.53;5012407;28;20979;-59
2024/03/29 11:23:05;;;;;;;76.60;36.10;;;;;;;12.59;100.00;96418.81;5016996;28;20551;-62